Tropical Cyclones
[Index]
Main Index Home Page Stock Weather Photos Extreme Storms Discussion Storm News and Storm Chasing Reports Tropical Cyclones / Hurricanes / Typhoons Weather Data and Links Wild Fires / Bushfires Weather Observation Techniques Weather Picture Catalogue Tornado Pictures and Reports Stock Video Footage and DVDs for sale
Season 2014-2015 Tropical Cyclone FUNDI Track Map
Season 2014-2015 Summaries: [BoM-AU] [JTWC-AU] [JTWC-SIO] [JTWC-SPAC] [JTWC-SH]
<<- Previous TC | JTWC 2014-2015 Season | Next TC ->>

click for intensity scale information  Lat/long Grid: Show Hide

 Date Labels: Show Hide

Joint Typhoon Warning Centre Cyclone Data

Name: FUNDI

05 Feb 2015 18:00 UTC to 10 Feb 2015 06:00 UTC

    date/time    lat    long     hPa   cat  kts
2015-02-05 18   21.3    40.7    1004         25          
2015-02-06 00   21.5    41.0    1003         25          
2015-02-06 06   21.6    41.5    1004         25          
2015-02-06 09   21.8    42.1    1000         30          
2015-02-06 12   22.2    42.6    1000         30          
2015-02-06 15   22.4    42.8    1000         30          
2015-02-06 18   22.8    42.8     996         35          
2015-02-07 00   23.4    42.9     993    1    40          
2015-02-07 06   24.0    43.0     993    1    40          
2015-02-07 12   24.7    43.2     993    1    40          
2015-02-07 18   25.6    43.6     993    1    40          
2015-02-08 00   26.4    43.8     989    1    45          
2015-02-08 06   28.4    44.0     982    2    55          
2015-02-08 12   30.4    44.1     985    1    50          
2015-02-08 18   32.7    44.2     985    1    50          
2015-02-09 00   34.2    43.6     989    1    45          
2015-02-09 06   34.9    42.8     996         35          
2015-02-09 12   35.4    42.1    1000         30          
2015-02-09 18   35.9    41.2    1000         30          
2015-02-10 00   36.4    40.8    1000         30          
2015-02-10 06   36.9    40.3    1000         30          
Winds are 1-min average.

Tropical cyclone tracks developed by Michael Bath using data from the Joint Typhoon Warning Centre Best Tracks and Google Maps.


[Australian Severe Weather index] [Copyright Notice] [Email Contacts] [Search This Site] [Privacy Policy]
Document: tropical_cyclone_fundi.htm Updated: 28 June 2017